createdAt,value
2022-09-15T00:01:12.357Z,4.53
2022-09-15T00:03:40.941Z,5.13
2022-09-15T00:06:09.502Z,5.40
2022-09-15T00:08:37.001Z,4.83
2022-09-15T00:11:21.304Z,4.10
2022-09-15T00:13:49.601Z,4.37
2022-09-15T00:16:32.429Z,4.57
2022-09-15T00:19:01.629Z,4.27
2022-09-15T00:21:32.977Z,5.00
2022-09-15T00:24:02.209Z,4.47
2022-09-15T00:26:31.585Z,4.43
2022-09-15T00:29:00.893Z,5.20
2022-09-15T00:31:30.874Z,4.20
2022-09-15T00:34:00.928Z,6.53
2022-09-15T00:36:28.954Z,7.77
2022-09-15T00:38:56.910Z,4.17
2022-09-15T00:41:25.483Z,4.13
2022-09-15T00:43:57.687Z,4.37
2022-09-15T00:46:38.425Z,5.07
2022-09-15T00:49:23.111Z,4.33
2022-09-15T00:52:04.264Z,4.27
2022-09-15T00:54:43.933Z,4.20
2022-09-15T00:57:39.313Z,5.23
2022-09-15T01:00:12.803Z,4.83
2022-09-15T01:02:44.568Z,4.30
2022-09-15T01:05:18.159Z,4.83
2022-09-15T01:07:55.544Z,7.03
2022-09-15T01:10:27.627Z,9.27
2022-09-15T01:13:00.453Z,4.73
2022-09-15T01:15:46.258Z,4.30
2022-09-15T01:18:29.365Z,4.50
2022-09-15T01:21:31.899Z,4.13
2022-09-15T01:24:38.185Z,4.53
2022-09-15T01:27:42.650Z,7.80
2022-09-15T01:30:23.332Z,7.17
2022-09-15T01:33:32.002Z,7.17
2022-09-15T01:36:18.243Z,6.63
2022-09-15T01:39:06.481Z,7.30
2022-09-15T01:41:39.344Z,21.90
2022-09-15T01:44:13.576Z,19.40
2022-09-15T01:46:46.698Z,19.20
2022-09-15T01:49:22.583Z,16.47
2022-09-15T01:51:54.211Z,15.43
2022-09-15T01:54:43.446Z,12.83
2022-09-15T01:57:10.843Z,11.93
2022-09-15T01:59:38.053Z,8.47
2022-09-15T02:02:18.890Z,9.20
2022-09-15T02:05:30.781Z,6.77
2022-09-15T02:08:03.791Z,10.47
2022-09-15T02:10:40.248Z,9.87
2022-09-15T02:13:20.916Z,10.43
2022-09-15T02:15:58.253Z,8.83
2022-09-15T02:18:49.098Z,7.87
2022-09-15T02:21:23.902Z,8.77
2022-09-15T02:23:58.818Z,8.07
2022-09-15T02:26:30.078Z,9.93
2022-09-15T02:29:05.122Z,10.57
2022-09-15T02:31:36.793Z,9.00
2022-09-15T02:34:23.310Z,12.53
2022-09-15T02:36:52.298Z,11.23
2022-09-15T02:39:26.552Z,9.80
2022-09-15T02:41:54.156Z,9.90
2022-09-15T02:44:21.345Z,10.33
2022-09-15T02:46:48.486Z,7.10
2022-09-15T02:49:15.703Z,5.23
2022-09-15T02:51:42.857Z,6.37
2022-09-15T02:54:10.162Z,9.00
2022-09-15T02:56:37.368Z,8.77
2022-09-15T02:59:04.617Z,7.70
2022-09-15T03:01:35.141Z,7.53
2022-09-15T03:04:04.135Z,9.40
2022-09-15T03:06:31.814Z,7.73
2022-09-15T03:08:59.316Z,6.27
2022-09-15T03:11:29.239Z,5.73
2022-09-15T03:14:00.934Z,7.93
2022-09-15T03:16:31.230Z,6.33
2022-09-15T03:18:59.942Z,8.03
2022-09-15T03:21:29.218Z,10.23
2022-09-15T03:23:58.311Z,6.73
2022-09-15T03:26:25.962Z,9.97
2022-09-15T03:28:53.453Z,10.57
2022-09-15T03:31:20.980Z,6.40
2022-09-15T03:33:49.177Z,7.60
2022-09-15T03:36:16.813Z,9.60
2022-09-15T03:38:44.057Z,8.23
2022-09-15T03:41:12.808Z,8.13
2022-09-15T03:43:40.211Z,7.23
2022-09-15T03:46:11.075Z,6.63
2022-09-15T03:48:39.397Z,6.87
2022-09-15T03:51:09.357Z,7.37
2022-09-15T03:53:39.693Z,5.87
2022-09-15T03:56:26.738Z,7.10
2022-09-15T03:58:54.729Z,7.10
2022-09-15T04:01:22.373Z,5.43
2022-09-15T04:03:51.483Z,5.83
2022-09-15T04:06:23.077Z,7.60
2022-09-15T04:08:51.948Z,9.83
2022-09-15T04:11:21.247Z,8.93
2022-09-15T04:13:49.052Z,14.23
2022-09-15T04:16:20.343Z,10.77
2022-09-15T04:18:47.689Z,13.23
2022-09-15T04:21:19.529Z,11.80
2022-09-15T04:23:47.990Z,13.17
2022-09-15T04:26:28.423Z,17.23
2022-09-15T04:28:55.672Z,17.83
2022-09-15T04:31:23.227Z,15.00
2022-09-15T04:33:54.230Z,13.27
2022-09-15T04:36:28.230Z,9.67
2022-09-15T04:38:56.936Z,8.63
2022-09-15T04:41:25.873Z,10.70
2022-09-15T04:43:53.997Z,9.60
2022-09-15T04:46:21.594Z,10.57
2022-09-15T04:48:48.999Z,14.73
2022-09-15T04:51:21.414Z,17.03
2022-09-15T04:53:49.710Z,14.33
2022-09-15T04:56:20.812Z,11.33
2022-09-15T04:58:58.235Z,11.33
2022-09-15T05:01:32.408Z,16.17
2022-09-15T05:04:02.867Z,14.43
2022-09-15T05:06:30.051Z,12.03
2022-09-15T05:08:58.528Z,11.33
2022-09-15T05:11:26.770Z,14.53
2022-09-15T05:13:54.654Z,11.57
2022-09-15T05:16:28.381Z,12.80
2022-09-15T05:18:59.391Z,12.13
2022-09-15T05:21:27.707Z,12.67
2022-09-15T05:23:55.203Z,11.37
2022-09-15T05:26:28.320Z,13.70
2022-09-15T05:28:57.186Z,11.60
2022-09-15T05:31:31.364Z,11.00
2022-09-15T05:34:02.714Z,10.13
2022-09-15T05:36:30.914Z,11.90
2022-09-15T05:38:58.727Z,8.87
2022-09-15T05:41:30.427Z,9.73
2022-09-15T05:43:58.926Z,10.47
2022-09-15T05:46:27.556Z,7.67
2022-09-15T05:48:57.617Z,7.50
2022-09-15T05:51:25.565Z,14.73
2022-09-15T05:53:52.786Z,12.90
2022-09-15T05:56:20.379Z,17.43
2022-09-15T05:58:49.202Z,15.90
2022-09-15T06:01:25.248Z,19.60
2022-09-15T06:03:54.523Z,18.03
2022-09-15T06:06:23.801Z,17.83
2022-09-15T06:08:57.986Z,11.63
2022-09-15T06:11:31.101Z,12.53
2022-09-15T06:14:03.741Z,17.47
2022-09-15T06:16:34.282Z,15.37
2022-09-15T06:19:02.214Z,14.17
2022-09-15T06:21:32.113Z,9.87
2022-09-15T06:24:05.218Z,9.10
2022-09-15T06:26:33.238Z,8.40
2022-09-15T06:29:03.169Z,9.10
2022-09-15T06:31:33.361Z,6.23
2022-09-15T06:34:01.545Z,6.67
2022-09-15T06:36:31.137Z,8.50
2022-09-15T06:38:59.430Z,8.33
2022-09-15T06:41:27.422Z,4.87
2022-09-15T06:43:55.492Z,7.93
2022-09-15T06:46:26.246Z,8.03
2022-09-15T06:48:54.231Z,9.60
2022-09-15T06:51:24.419Z,11.03
2022-09-15T06:53:53.604Z,6.90
2022-09-15T06:56:23.613Z,6.13
2022-09-15T06:58:51.428Z,7.07
2022-09-15T07:01:25.738Z,6.27
2022-09-15T07:03:53.228Z,7.40
2022-09-15T07:06:22.014Z,6.07
2022-09-15T07:08:50.785Z,6.23
2022-09-15T07:11:18.591Z,7.60
2022-09-15T07:13:47.293Z,6.80
2022-09-15T07:16:15.522Z,6.87
2022-09-15T07:18:43.731Z,5.97
2022-09-15T07:21:20.519Z,6.43
2022-09-15T07:23:49.166Z,6.23
2022-09-15T07:26:20.980Z,9.33
2022-09-15T07:28:55.207Z,6.87
2022-09-15T07:31:25.824Z,8.00
2022-09-15T07:33:53.491Z,8.40
2022-09-15T07:36:21.338Z,7.23
2022-09-15T07:38:50.232Z,12.33
2022-09-15T07:41:24.843Z,9.33
2022-09-15T07:43:58.204Z,14.17
2022-09-15T07:46:29.625Z,10.63
2022-09-15T07:48:57.034Z,8.00
2022-09-15T07:51:25.692Z,6.10
2022-09-15T07:53:54.024Z,11.13
2022-09-15T07:56:21.720Z,7.47
2022-09-15T07:58:49.772Z,9.67
2022-09-15T08:01:19.341Z,7.60
2022-09-15T08:03:49.743Z,7.70
2022-09-15T08:06:21.205Z,6.13
2022-09-15T08:08:48.756Z,8.97
2022-09-15T08:11:19.190Z,6.87
2022-09-15T08:13:51.500Z,6.13
2022-09-15T08:16:23.445Z,4.83
2022-09-15T08:18:53.508Z,6.27
2022-09-15T08:21:22.041Z,8.87
2022-09-15T08:23:59.070Z,7.10
2022-09-15T08:26:28.987Z,7.80
2022-09-15T08:28:56.428Z,5.80
2022-09-15T08:31:24.594Z,5.97
2022-09-15T08:33:55.772Z,7.03
2022-09-15T08:36:23.522Z,6.20
2022-09-15T08:38:50.920Z,9.63
2022-09-15T08:41:51.356Z,5.97
2022-09-15T08:44:43.075Z,7.83
2022-09-15T08:47:33.974Z,6.43
2022-09-15T08:50:08.221Z,5.10
2022-09-15T08:53:17.300Z,7.90
2022-09-15T08:55:54.226Z,6.57
2022-09-15T08:58:30.399Z,6.90
2022-09-15T09:01:04.165Z,6.77
2022-09-15T09:04:02.043Z,4.47
2022-09-15T09:07:32.215Z,5.63
2022-09-15T09:10:13.192Z,5.40
2022-09-15T09:13:23.993Z,10.77
2022-09-15T09:16:21.445Z,5.90
2022-09-15T09:19:19.162Z,4.63
2022-09-15T09:22:13.875Z,7.43
2022-09-15T09:24:48.046Z,7.70
2022-09-15T09:27:20.306Z,6.00
2022-09-15T09:30:24.210Z,8.30
2022-09-15T09:33:03.376Z,6.40
2022-09-15T09:35:49.887Z,6.30
2022-09-15T09:38:27.480Z,3.80
2022-09-15T09:40:58.592Z,4.33
2022-09-15T09:43:30.055Z,4.10
2022-09-15T09:45:57.551Z,4.93
2022-09-15T09:48:27.569Z,3.90
2022-09-15T09:50:54.907Z,4.03
2022-09-15T09:53:34.086Z,4.43
2022-09-15T09:56:16.501Z,3.97
2022-09-15T09:58:44.734Z,3.73
2022-09-15T10:01:17.684Z,3.00
2022-09-15T10:03:45.552Z,3.40
2022-09-15T10:06:30.939Z,3.03
2022-09-15T10:09:08.600Z,3.70
2022-09-15T10:11:55.553Z,3.43
2022-09-15T10:14:40.350Z,2.50
2022-09-15T10:17:20.831Z,3.50
2022-09-15T10:19:53.879Z,3.50
2022-09-15T10:22:37.410Z,2.77
2022-09-15T10:25:22.622Z,2.37
2022-09-15T10:28:08.981Z,2.80
2022-09-15T10:30:40.878Z,3.63
2022-09-15T10:33:26.008Z,2.20
2022-09-15T10:35:55.414Z,2.42
2022-09-15T10:38:40.170Z,3.15
2022-09-15T10:41:30.012Z,2.63
2022-09-15T10:44:14.692Z,3.03
2022-09-15T10:47:15.099Z,3.70
2022-09-15T10:49:49.877Z,2.67
2022-09-15T10:52:45.741Z,2.70
2022-09-15T10:55:51.520Z,5.70
2022-09-15T10:59:06.765Z,2.33
2022-09-15T11:02:15.305Z,2.40
2022-09-15T11:04:58.198Z,2.67
2022-09-15T11:07:52.250Z,2.40
2022-09-15T11:11:07.228Z,3.05
2022-09-15T11:14:03.598Z,4.30
2022-09-15T11:16:33.919Z,2.78
2022-09-15T11:19:41.934Z,2.17
2022-09-15T11:22:18.634Z,2.30
2022-09-15T11:25:06.274Z,3.75
2022-09-15T11:27:54.621Z,2.43
2022-09-15T11:30:25.457Z,3.50
2022-09-15T11:33:04.280Z,5.68
2022-09-15T11:36:00.664Z,4.85
2022-09-15T11:38:59.653Z,4.90
2022-09-15T11:41:39.417Z,3.33
2022-09-15T11:44:16.182Z,3.58
2022-09-15T11:47:21.391Z,2.80
2022-09-15T11:50:00.747Z,3.45
2022-09-15T11:52:49.030Z,2.35
2022-09-15T11:55:27.585Z,2.25
2022-09-15T11:58:28.551Z,2.40
2022-09-15T12:01:08.339Z,2.70
2022-09-15T12:03:49.765Z,2.45
2022-09-15T12:06:49.047Z,2.17
2022-09-15T12:09:20.589Z,2.28
2022-09-15T12:12:06.574Z,3.67
2022-09-15T12:14:44.109Z,3.75
2022-09-15T12:17:47.805Z,2.95
2022-09-15T12:20:37.151Z,3.42
2022-09-15T12:23:33.855Z,4.45
2022-09-15T12:26:23.649Z,2.97
2022-09-15T12:28:58.349Z,3.58
2022-09-15T12:31:27.719Z,2.10
2022-09-15T12:34:01.349Z,2.53
2022-09-15T12:36:36.884Z,3.85
2022-09-15T12:39:21.106Z,2.08
2022-09-15T12:41:53.473Z,2.90
2022-09-15T12:44:45.336Z,2.70
2022-09-15T12:47:25.630Z,2.67
2022-09-15T12:49:57.876Z,2.28
2022-09-15T12:52:26.329Z,3.00
2022-09-15T12:54:59.777Z,3.35
2022-09-15T12:57:36.902Z,2.20
2022-09-15T13:00:23.125Z,4.88
2022-09-15T13:02:51.646Z,6.88
2022-09-15T13:05:44.016Z,20.85
2022-09-15T13:08:32.457Z,5.70
2022-09-15T13:11:11.194Z,4.93
2022-09-15T13:13:50.161Z,3.63
2022-09-15T13:16:41.555Z,2.00
2022-09-15T13:19:26.891Z,3.70
2022-09-15T13:22:28.903Z,2.47
2022-09-15T13:25:16.546Z,4.32
2022-09-15T13:27:56.360Z,3.20
2022-09-15T13:30:44.722Z,2.90
2022-09-15T13:40:13.902Z,4.47
2022-09-15T13:43:10.984Z,2.80
2022-09-15T13:46:04.752Z,1.80
2022-09-15T13:48:55.158Z,2.22
2022-09-15T13:51:29.437Z,2.30
2022-09-15T13:54:06.473Z,2.60
2022-09-15T13:56:41.071Z,2.92
2022-09-15T13:59:18.901Z,2.47
2022-09-15T14:01:48.660Z,2.53
2022-09-15T14:04:21.886Z,3.88
2022-09-15T14:06:57.107Z,4.55
2022-09-15T14:09:40.556Z,2.78
2022-09-15T14:12:14.075Z,2.95
2022-09-15T14:14:47.461Z,9.18
2022-09-15T14:17:24.873Z,4.47
2022-09-15T14:19:55.668Z,5.00
2022-09-15T14:22:34.477Z,3.38
2022-09-15T14:25:16.683Z,6.28
2022-09-15T14:27:49.208Z,33.00
2022-09-15T14:30:31.740Z,4.32
2022-09-15T14:33:02.336Z,3.83
2022-09-15T14:35:37.201Z,3.53
2022-09-15T14:38:05.101Z,2.95
2022-09-15T14:40:38.063Z,2.50
2022-09-15T14:43:31.303Z,7.05
2022-09-15T14:46:12.061Z,3.67
2022-09-15T14:48:39.792Z,4.07
2022-09-15T14:51:27.326Z,5.47
2022-09-15T14:54:01.544Z,4.90
2022-09-15T14:56:35.308Z,3.92
2022-09-15T14:59:11.349Z,3.35
2022-09-15T15:01:48.782Z,2.15
2022-09-15T15:04:41.170Z,2.55
2022-09-15T15:07:20.815Z,3.80
2022-09-15T15:09:58.808Z,2.20
2022-09-15T15:12:41.832Z,2.97
2022-09-15T15:15:14.038Z,5.63
2022-09-15T15:17:48.477Z,4.05
2022-09-15T15:20:22.543Z,4.13
2022-09-15T15:23:20.328Z,2.88
2022-09-15T15:25:48.058Z,5.05
2022-09-15T15:28:38.206Z,2.92
2022-09-15T15:31:18.161Z,4.28
2022-09-15T15:34:19.632Z,2.17
2022-09-15T15:36:46.963Z,3.05
2022-09-15T15:39:24.857Z,2.20
2022-09-15T15:42:06.181Z,2.60
2022-09-15T15:44:33.469Z,3.72
2022-09-15T15:47:23.559Z,2.72
2022-09-15T15:50:12.954Z,4.13
2022-09-15T15:52:41.819Z,1.90
2022-09-15T15:55:24.363Z,3.00
2022-09-15T15:57:54.714Z,4.03
2022-09-15T16:00:26.319Z,8.88
2022-09-15T16:02:53.711Z,3.97
2022-09-15T16:05:25.468Z,3.72
2022-09-15T16:07:54.787Z,3.28
2022-09-15T16:10:28.249Z,2.10
2022-09-15T16:12:56.046Z,3.38
2022-09-15T16:15:23.181Z,5.05
2022-09-15T16:17:50.605Z,3.75
2022-09-15T16:20:18.294Z,2.42
2022-09-15T16:22:46.034Z,4.47
2022-09-15T16:25:45.745Z,2.60
2022-09-15T16:28:13.048Z,3.15
2022-09-15T16:30:40.452Z,4.15
2022-09-15T16:33:07.797Z,3.70
2022-09-15T16:36:00.831Z,1.98
2022-09-15T16:38:28.064Z,4.50
2022-09-15T16:40:55.509Z,3.28
2022-09-15T16:43:25.143Z,4.10
2022-09-15T16:45:53.236Z,4.15
2022-09-15T16:48:20.586Z,2.15
2022-09-15T16:51:20.523Z,2.97
2022-09-15T16:53:37.741Z,3.38
2022-09-15T16:56:07.801Z,3.63
2022-09-15T16:58:35.044Z,4.53
2022-09-15T17:01:02.410Z,4.22
2022-09-15T17:03:29.884Z,3.30
2022-09-15T17:06:00.380Z,4.15
2022-09-15T17:08:33.211Z,4.35
2022-09-15T17:11:03.327Z,3.58
2022-09-15T17:13:34.102Z,2.45
2022-09-15T17:16:02.131Z,3.63
2022-09-15T17:18:32.489Z,2.55
2022-09-15T17:20:59.769Z,2.35
2022-09-15T17:23:39.768Z,3.58
2022-09-15T17:26:13.123Z,6.93
2022-09-15T17:28:40.760Z,3.30
2022-09-15T17:31:20.678Z,3.50
2022-09-15T17:33:49.829Z,2.38
2022-09-15T17:36:18.180Z,2.65
2022-09-15T17:38:45.511Z,4.60
2022-09-15T17:41:21.137Z,4.13
2022-09-15T17:43:48.880Z,3.65
2022-09-15T17:46:16.128Z,4.88
2022-09-15T17:48:44.664Z,4.75
2022-09-15T17:51:17.568Z,6.70
2022-09-15T17:53:45.511Z,2.60
2022-09-15T17:56:12.904Z,3.20
2022-09-15T17:58:40.162Z,5.87
2022-09-15T18:01:07.549Z,2.90
2022-09-15T18:03:37.383Z,3.43
2022-09-15T18:06:11.418Z,4.07
2022-09-15T18:08:41.159Z,6.40
2022-09-15T18:11:12.924Z,3.20
2022-09-15T18:13:40.058Z,2.47
2022-09-15T18:16:13.068Z,3.63
2022-09-15T18:18:40.780Z,3.23
2022-09-15T18:21:17.449Z,5.67
2022-09-15T18:23:44.600Z,5.70
2022-09-15T18:26:11.739Z,5.30
2022-09-15T18:28:39.067Z,3.33
2022-09-15T18:31:06.473Z,2.80
2022-09-15T18:33:34.812Z,4.00
2022-09-15T18:36:02.412Z,3.90
2022-09-15T18:38:29.573Z,3.53
2022-09-15T18:40:57.907Z,5.50
2022-09-15T18:43:27.564Z,4.33
2022-09-15T18:46:01.617Z,5.00
2022-09-15T18:48:29.323Z,1.70
2022-09-15T18:50:56.922Z,2.43
2022-09-15T18:53:24.556Z,2.10
2022-09-15T18:55:51.780Z,2.27
2022-09-15T18:58:52.322Z,3.17
2022-09-15T19:01:22.985Z,2.57
2022-09-15T19:03:52.794Z,2.80
2022-09-15T19:06:25.114Z,2.37
2022-09-15T19:08:52.340Z,2.73
2022-09-15T19:11:19.807Z,2.33
2022-09-15T19:13:47.020Z,2.30
2022-09-15T19:16:14.467Z,2.00
2022-09-15T19:18:41.657Z,3.13
2022-09-15T19:21:11.842Z,3.53
2022-09-15T19:23:42.503Z,4.67
2022-09-15T19:26:12.473Z,2.90
2022-09-15T19:28:40.466Z,3.53
2022-09-15T19:31:08.368Z,3.30
2022-09-15T19:33:35.814Z,4.00
2022-09-15T19:36:26.889Z,2.57
2022-09-15T19:38:54.244Z,5.97
2022-09-15T19:41:21.598Z,3.83
2022-09-15T19:43:48.681Z,7.93
2022-09-15T19:46:19.178Z,2.60
2022-09-15T19:48:49.428Z,4.30
2022-09-15T19:51:18.390Z,6.90
2022-09-15T19:53:48.028Z,7.83
2022-09-15T19:56:19.288Z,7.57
2022-09-15T19:58:46.505Z,5.90
2022-09-15T20:01:14.372Z,4.83
2022-09-15T20:03:41.882Z,6.20
2022-09-15T20:06:09.842Z,6.97
2022-09-15T20:08:37.469Z,5.90
2022-09-15T20:11:07.292Z,4.00
2022-09-15T20:13:35.708Z,4.23
2022-09-15T20:16:03.614Z,5.03
2022-09-15T20:18:31.630Z,4.43
2022-09-15T20:20:59.360Z,6.27
2022-09-15T20:23:26.773Z,5.43
2022-09-15T20:26:04.029Z,4.30
2022-09-15T20:28:32.025Z,5.00
2022-09-15T20:31:09.558Z,4.07
2022-09-15T20:33:40.391Z,5.03
2022-09-15T20:36:21.191Z,4.50
2022-09-15T20:38:48.984Z,4.40
2022-09-15T20:41:19.493Z,5.30
2022-09-15T20:43:46.713Z,3.37
2022-09-15T20:46:17.824Z,5.47
2022-09-15T20:48:45.960Z,6.37
2022-09-15T20:51:25.450Z,3.33
2022-09-15T20:53:55.344Z,3.73
2022-09-15T20:56:25.546Z,5.53
2022-09-15T20:59:03.358Z,3.60
2022-09-15T21:01:37.240Z,3.23
2022-09-15T21:04:09.358Z,3.00
2022-09-15T21:06:38.046Z,3.67
2022-09-15T21:09:06.097Z,4.27
2022-09-15T21:11:33.697Z,4.47
2022-09-15T21:14:01.914Z,5.63
2022-09-15T21:16:30.142Z,5.23
2022-09-15T21:18:58.688Z,3.90
2022-09-15T21:21:29.953Z,3.23
2022-09-15T21:24:00.918Z,2.80
2022-09-15T21:26:31.446Z,2.70
2022-09-15T21:28:58.848Z,3.63
2022-09-15T21:31:32.805Z,3.23
2022-09-15T21:34:00.529Z,3.17
2022-09-15T21:36:30.454Z,4.23
2022-09-15T21:38:59.596Z,4.37
2022-09-15T21:41:29.299Z,3.10
2022-09-15T21:43:57.459Z,12.20
2022-09-15T21:46:29.258Z,19.03
2022-09-15T21:48:59.298Z,14.07
2022-09-15T21:51:29.728Z,8.47
2022-09-15T21:53:59.484Z,10.07
2022-09-15T21:56:29.445Z,9.90
2022-09-15T21:58:57.021Z,4.93
2022-09-15T22:01:28.143Z,5.10
2022-09-15T22:04:06.157Z,6.20
2022-09-15T22:06:39.814Z,8.33
2022-09-15T22:09:17.205Z,8.63
2022-09-15T22:11:44.765Z,9.40
2022-09-15T22:14:12.309Z,11.20
2022-09-15T22:16:41.956Z,9.87
2022-09-15T22:19:11.686Z,11.20
2022-09-15T22:21:40.318Z,7.97
2022-09-15T22:24:10.957Z,6.27
2022-09-15T22:26:39.190Z,4.77
2022-09-15T22:29:06.896Z,5.20
2022-09-15T22:31:35.514Z,2.93
2022-09-15T22:34:03.511Z,2.90
2022-09-15T22:36:31.782Z,3.13
2022-09-15T22:39:01.285Z,2.63
2022-09-15T22:41:28.498Z,2.40
2022-09-15T22:43:55.739Z,2.50
2022-09-15T22:46:22.894Z,3.43
2022-09-15T22:48:50.059Z,2.70
2022-09-15T22:51:17.611Z,2.90
2022-09-15T22:53:44.834Z,2.50
2022-09-15T22:56:17.724Z,4.53
2022-09-15T22:58:45.478Z,3.00
2022-09-15T23:01:26.034Z,3.37
2022-09-15T23:03:57.102Z,3.83
2022-09-15T23:06:28.513Z,2.60
2022-09-15T23:09:00.392Z,2.63
2022-09-15T23:11:29.828Z,2.53
2022-09-15T23:13:57.110Z,2.63
2022-09-15T23:16:26.409Z,4.23
2022-09-15T23:18:54.824Z,4.90
2022-09-15T23:21:22.869Z,7.30
2022-09-15T23:23:53.767Z,6.13
2022-09-15T23:26:24.253Z,4.80
2022-09-15T23:28:52.334Z,5.03
2022-09-15T23:31:20.438Z,3.60
2022-09-15T23:33:48.443Z,3.80
2022-09-15T23:36:18.237Z,3.60
2022-09-15T23:38:47.830Z,2.90
2022-09-15T23:41:16.821Z,2.50
2022-09-15T23:43:45.018Z,3.63
2022-09-15T23:46:12.349Z,2.57
2022-09-15T23:48:39.649Z,2.47
2022-09-15T23:51:06.887Z,4.33
2022-09-15T23:53:34.630Z,2.23
2022-09-15T23:56:02.274Z,2.40
2022-09-15T23:58:29.828Z,2.67
